sensor_id;sensor_type;location;lat;lon;timestamp;temperature;humidity
3408;DHT22;1717;50.240;8.406;2023-08-20T00:00:07;24.20;99.90
3408;DHT22;1717;50.240;8.406;2023-08-20T00:02:36;24.20;99.90
3408;DHT22;1717;50.240;8.406;2023-08-20T00:05:04;24.20;99.90
3408;DHT22;1717;50.240;8.406;2023-08-20T00:07:32;24.20;99.90
3408;DHT22;1717;50.240;8.406;2023-08-20T00:09:59;24.10;99.90
3408;DHT22;1717;50.240;8.406;2023-08-20T00:12:26;24.10;99.50
3408;DHT22;1717;50.240;8.406;2023-08-20T00:14:55;24.10;99.20
3408;DHT22;1717;50.240;8.406;2023-08-20T00:17:25;24.00;99.30
3408;DHT22;1717;50.240;8.406;2023-08-20T00:19:53;24.00;99.70
3408;DHT22;1717;50.240;8.406;2023-08-20T00:22:22;24.00;99.90
3408;DHT22;1717;50.240;8.406;2023-08-20T00:24:49;24.00;99.90
3408;DHT22;1717;50.240;8.406;2023-08-20T00:27:16;24.00;99.90
3408;DHT22;1717;50.240;8.406;2023-08-20T00:29:43;24.00;99.90
3408;DHT22;1717;50.240;8.406;2023-08-20T00:32:10;24.00;99.90
3408;DHT22;1717;50.240;8.406;2023-08-20T00:34:38;24.00;99.90
3408;DHT22;1717;50.240;8.406;2023-08-20T00:37:06;24.10;99.90
3408;DHT22;1717;50.240;8.406;2023-08-20T00:39:32;24.10;99.90
3408;DHT22;1717;50.240;8.406;2023-08-20T00:41:59;24.10;99.90
3408;DHT22;1717;50.240;8.406;2023-08-20T00:44:26;24.10;99.90
3408;DHT22;1717;50.240;8.406;2023-08-20T00:46:53;24.10;99.90
3408;DHT22;1717;50.240;8.406;2023-08-20T00:49:20;24.10;99.90
3408;DHT22;1717;50.240;8.406;2023-08-20T00:51:50;24.10;99.90
3408;DHT22;1717;50.240;8.406;2023-08-20T00:54:17;24.10;99.90
3408;DHT22;1717;50.240;8.406;2023-08-20T00:56:44;24.10;99.90
3408;DHT22;1717;50.240;8.406;2023-08-20T00:59:11;24.00;99.90
3408;DHT22;1717;50.240;8.406;2023-08-20T01:01:38;24.00;99.90
3408;DHT22;1717;50.240;8.406;2023-08-20T01:04:05;24.00;99.90
3408;DHT22;1717;50.240;8.406;2023-08-20T01:06:39;23.90;99.90
3408;DHT22;1717;50.240;8.406;2023-08-20T01:09:18;23.90;99.90
3408;DHT22;1717;50.240;8.406;2023-08-20T01:11:55;23.90;99.90
3408;DHT22;1717;50.240;8.406;2023-08-20T01:14:22;23.90;99.90
3408;DHT22;1717;50.240;8.406;2023-08-20T01:16:49;23.80;99.90
3408;DHT22;1717;50.240;8.406;2023-08-20T01:19:18;23.80;99.90
3408;DHT22;1717;50.240;8.406;2023-08-20T01:21:56;23.70;99.90
3408;DHT22;1717;50.240;8.406;2023-08-20T01:24:43;23.70;99.90
3408;DHT22;1717;50.240;8.406;2023-08-20T01:27:25;23.70;99.90
3408;DHT22;1717;50.240;8.406;2023-08-20T01:29:55;23.70;99.90
3408;DHT22;1717;50.240;8.406;2023-08-20T01:32:23;23.60;99.90
3408;DHT22;1717;50.240;8.406;2023-08-20T01:34:51;23.60;99.90
3408;DHT22;1717;50.240;8.406;2023-08-20T01:37:18;23.60;99.90
3408;DHT22;1717;50.240;8.406;2023-08-20T01:39:45;23.60;99.90
3408;DHT22;1717;50.240;8.406;2023-08-20T01:42:12;23.50;99.90
3408;DHT22;1717;50.240;8.406;2023-08-20T01:44:39;23.50;99.90
3408;DHT22;1717;50.240;8.406;2023-08-20T01:47:07;23.50;99.90
3408;DHT22;1717;50.240;8.406;2023-08-20T01:49:33;23.50;99.90
3408;DHT22;1717;50.240;8.406;2023-08-20T01:52:00;23.40;99.90
3408;DHT22;1717;50.240;8.406;2023-08-20T01:54:27;23.40;99.90
3408;DHT22;1717;50.240;8.406;2023-08-20T01:56:55;23.40;99.90
3408;DHT22;1717;50.240;8.406;2023-08-20T01:59:22;23.40;99.90
3408;DHT22;1717;50.240;8.406;2023-08-20T02:01:49;23.40;99.90
3408;DHT22;1717;50.240;8.406;2023-08-20T02:04:17;23.40;99.90
3408;DHT22;1717;50.240;8.406;2023-08-20T02:06:44;23.40;99.90
3408;DHT22;1717;50.240;8.406;2023-08-20T02:09:10;23.30;99.90
3408;DHT22;1717;50.240;8.406;2023-08-20T02:11:37;23.40;99.90
3408;DHT22;1717;50.240;8.406;2023-08-20T02:14:04;23.30;99.90
3408;DHT22;1717;50.240;8.406;2023-08-20T02:16:31;23.30;99.90
3408;DHT22;1717;50.240;8.406;2023-08-20T02:18:58;23.30;99.90
3408;DHT22;1717;50.240;8.406;2023-08-20T02:21:26;23.30;99.90
3408;DHT22;1717;50.240;8.406;2023-08-20T02:23:53;23.30;99.90
3408;DHT22;1717;50.240;8.406;2023-08-20T02:26:19;23.20;99.90
3408;DHT22;1717;50.240;8.406;2023-08-20T02:28:46;23.20;99.90
3408;DHT22;1717;50.240;8.406;2023-08-20T02:31:13;23.20;99.90
3408;DHT22;1717;50.240;8.406;2023-08-20T02:33:40;23.20;99.90
3408;DHT22;1717;50.240;8.406;2023-08-20T02:36:07;23.20;99.90
3408;DHT22;1717;50.240;8.406;2023-08-20T02:38:35;23.10;99.90
3408;DHT22;1717;50.240;8.406;2023-08-20T02:41:02;23.10;99.90
3408;DHT22;1717;50.240;8.406;2023-08-20T02:43:29;23.10;99.90
3408;DHT22;1717;50.240;8.406;2023-08-20T02:45:56;23.00;99.90
3408;DHT22;1717;50.240;8.406;2023-08-20T02:48:23;23.00;99.90
3408;DHT22;1717;50.240;8.406;2023-08-20T02:50:52;23.00;99.90
3408;DHT22;1717;50.240;8.406;2023-08-20T02:53:19;23.00;99.90
3408;DHT22;1717;50.240;8.406;2023-08-20T02:55:48;23.00;99.90
3408;DHT22;1717;50.240;8.406;2023-08-20T02:58:15;23.00;99.90
3408;DHT22;1717;50.240;8.406;2023-08-20T03:00:42;22.90;99.90
3408;DHT22;1717;50.240;8.406;2023-08-20T03:03:10;22.90;99.90
3408;DHT22;1717;50.240;8.406;2023-08-20T03:05:37;22.90;99.90
3408;DHT22;1717;50.240;8.406;2023-08-20T03:08:05;22.90;99.90
3408;DHT22;1717;50.240;8.406;2023-08-20T03:10:32;22.90;99.90
3408;DHT22;1717;50.240;8.406;2023-08-20T03:13:00;22.80;99.90
3408;DHT22;1717;50.240;8.406;2023-08-20T03:15:27;22.80;99.90
3408;DHT22;1717;50.240;8.406;2023-08-20T03:17:54;22.80;99.90
3408;DHT22;1717;50.240;8.406;2023-08-20T03:20:21;22.70;99.90
3408;DHT22;1717;50.240;8.406;2023-08-20T03:22:48;22.70;99.90
3408;DHT22;1717;50.240;8.406;2023-08-20T03:25:15;22.70;99.90
3408;DHT22;1717;50.240;8.406;2023-08-20T03:27:42;22.70;99.90
3408;DHT22;1717;50.240;8.406;2023-08-20T03:30:11;22.70;99.90
3408;DHT22;1717;50.240;8.406;2023-08-20T03:32:38;22.60;99.90
3408;DHT22;1717;50.240;8.406;2023-08-20T03:35:06;22.70;99.90
3408;DHT22;1717;50.240;8.406;2023-08-20T03:37:32;22.60;99.90
3408;DHT22;1717;50.240;8.406;2023-08-20T03:39:59;22.60;99.90
3408;DHT22;1717;50.240;8.406;2023-08-20T03:42:26;22.50;99.90
3408;DHT22;1717;50.240;8.406;2023-08-20T03:44:53;22.50;99.90
3408;DHT22;1717;50.240;8.406;2023-08-20T03:47:21;22.50;99.90
3408;DHT22;1717;50.240;8.406;2023-08-20T03:49:48;22.50;99.90
3408;DHT22;1717;50.240;8.406;2023-08-20T03:52:15;22.50;99.90
3408;DHT22;1717;50.240;8.406;2023-08-20T03:54:41;22.50;99.90
3408;DHT22;1717;50.240;8.406;2023-08-20T03:57:08;22.50;99.90
3408;DHT22;1717;50.240;8.406;2023-08-20T03:59:35;22.40;99.90
3408;DHT22;1717;50.240;8.406;2023-08-20T04:02:02;22.40;99.90
3408;DHT22;1717;50.240;8.406;2023-08-20T04:04:30;22.40;99.90
3408;DHT22;1717;50.240;8.406;2023-08-20T04:06:57;22.40;99.90
3408;DHT22;1717;50.240;8.406;2023-08-20T04:09:24;22.40;99.90
3408;DHT22;1717;50.240;8.406;2023-08-20T04:11:51;22.30;99.90
3408;DHT22;1717;50.240;8.406;2023-08-20T04:14:18;22.30;99.90
3408;DHT22;1717;50.240;8.406;2023-08-20T04:16:45;22.30;99.90
3408;DHT22;1717;50.240;8.406;2023-08-20T04:19:11;22.30;99.90
3408;DHT22;1717;50.240;8.406;2023-08-20T04:21:39;22.30;99.90
3408;DHT22;1717;50.240;8.406;2023-08-20T04:24:06;22.30;99.90
3408;DHT22;1717;50.240;8.406;2023-08-20T04:26:33;22.30;99.90
3408;DHT22;1717;50.240;8.406;2023-08-20T04:29:00;22.30;99.90
3408;DHT22;1717;50.240;8.406;2023-08-20T04:31:27;22.30;99.90
3408;DHT22;1717;50.240;8.406;2023-08-20T04:33:54;22.30;99.90
3408;DHT22;1717;50.240;8.406;2023-08-20T04:36:21;22.30;99.90
3408;DHT22;1717;50.240;8.406;2023-08-20T04:38:49;22.30;99.90
3408;DHT22;1717;50.240;8.406;2023-08-20T04:41:16;22.30;99.90
3408;DHT22;1717;50.240;8.406;2023-08-20T04:43:42;22.30;99.90
3408;DHT22;1717;50.240;8.406;2023-08-20T04:46:09;22.30;99.90
3408;DHT22;1717;50.240;8.406;2023-08-20T04:48:36;22.30;99.90
3408;DHT22;1717;50.240;8.406;2023-08-20T04:51:03;22.30;99.90
3408;DHT22;1717;50.240;8.406;2023-08-20T04:53:30;22.30;99.90
3408;DHT22;1717;50.240;8.406;2023-08-20T04:55:58;22.30;99.90
3408;DHT22;1717;50.240;8.406;2023-08-20T04:58:25;22.30;99.90
3408;DHT22;1717;50.240;8.406;2023-08-20T05:00:52;22.30;99.90
3408;DHT22;1717;50.240;8.406;2023-08-20T05:03:19;22.30;99.90
3408;DHT22;1717;50.240;8.406;2023-08-20T05:05:48;22.30;99.90
3408;DHT22;1717;50.240;8.406;2023-08-20T05:08:15;22.20;99.90
3408;DHT22;1717;50.240;8.406;2023-08-20T05:10:42;22.30;99.90
3408;DHT22;1717;50.240;8.406;2023-08-20T05:13:11;22.30;99.90
3408;DHT22;1717;50.240;8.406;2023-08-20T05:15:37;22.40;99.90
3408;DHT22;1717;50.240;8.406;2023-08-20T05:18:04;22.40;99.90
3408;DHT22;1717;50.240;8.406;2023-08-20T05:20:31;22.40;99.90
3408;DHT22;1717;50.240;8.406;2023-08-20T05:22:59;22.40;99.90
3408;DHT22;1717;50.240;8.406;2023-08-20T05:25:26;22.40;99.90
3408;DHT22;1717;50.240;8.406;2023-08-20T05:27:52;22.50;99.90
3408;DHT22;1717;50.240;8.406;2023-08-20T05:30:20;22.50;99.90
3408;DHT22;1717;50.240;8.406;2023-08-20T05:32:47;22.50;99.90
3408;DHT22;1717;50.240;8.406;2023-08-20T05:35:14;22.50;99.90
3408;DHT22;1717;50.240;8.406;2023-08-20T05:37:41;22.50;99.90
3408;DHT22;1717;50.240;8.406;2023-08-20T05:40:09;22.60;99.90
3408;DHT22;1717;50.240;8.406;2023-08-20T05:42:36;22.60;99.90
3408;DHT22;1717;50.240;8.406;2023-08-20T05:45:03;22.60;99.90
3408;DHT22;1717;50.240;8.406;2023-08-20T05:47:31;22.70;99.90
3408;DHT22;1717;50.240;8.406;2023-08-20T05:49:58;22.70;99.90
3408;DHT22;1717;50.240;8.406;2023-08-20T05:52:25;22.80;99.90
3408;DHT22;1717;50.240;8.406;2023-08-20T05:54:52;22.80;99.90
3408;DHT22;1717;50.240;8.406;2023-08-20T05:57:18;22.90;99.90
3408;DHT22;1717;50.240;8.406;2023-08-20T05:59:45;22.80;99.90
3408;DHT22;1717;50.240;8.406;2023-08-20T06:02:15;22.80;99.90
3408;DHT22;1717;50.240;8.406;2023-08-20T06:04:44;22.80;99.90
3408;DHT22;1717;50.240;8.406;2023-08-20T06:07:11;22.80;99.90
3408;DHT22;1717;50.240;8.406;2023-08-20T06:09:38;22.80;99.90
3408;DHT22;1717;50.240;8.406;2023-08-20T06:12:05;22.80;99.90
3408;DHT22;1717;50.240;8.406;2023-08-20T06:14:32;22.80;99.90
3408;DHT22;1717;50.240;8.406;2023-08-20T06:16:58;22.80;99.90
3408;DHT22;1717;50.240;8.406;2023-08-20T06:19:25;22.80;99.90
3408;DHT22;1717;50.240;8.406;2023-08-20T06:21:54;22.80;99.90
3408;DHT22;1717;50.240;8.406;2023-08-20T06:24:20;22.90;99.90
3408;DHT22;1717;50.240;8.406;2023-08-20T06:26:47;22.90;99.90
3408;DHT22;1717;50.240;8.406;2023-08-20T06:29:14;22.90;99.90
3408;DHT22;1717;50.240;8.406;2023-08-20T06:31:41;22.90;99.90
3408;DHT22;1717;50.240;8.406;2023-08-20T06:34:08;22.90;99.90
3408;DHT22;1717;50.240;8.406;2023-08-20T06:36:35;22.90;99.90
3408;DHT22;1717;50.240;8.406;2023-08-20T06:39:04;22.90;99.90
3408;DHT22;1717;50.240;8.406;2023-08-20T06:41:30;23.00;99.90
3408;DHT22;1717;50.240;8.406;2023-08-20T06:43:57;23.00;99.90
3408;DHT22;1717;50.240;8.406;2023-08-20T06:46:24;23.00;99.90
3408;DHT22;1717;50.240;8.406;2023-08-20T06:48:51;23.10;99.90
3408;DHT22;1717;50.240;8.406;2023-08-20T06:51:20;23.20;99.90
3408;DHT22;1717;50.240;8.406;2023-08-20T06:53:48;23.30;99.90
3408;DHT22;1717;50.240;8.406;2023-08-20T06:56:16;23.30;99.90
3408;DHT22;1717;50.240;8.406;2023-08-20T06:58:43;23.40;99.90
3408;DHT22;1717;50.240;8.406;2023-08-20T07:01:10;23.40;99.90
3408;DHT22;1717;50.240;8.406;2023-08-20T07:03:39;23.50;99.90
3408;DHT22;1717;50.240;8.406;2023-08-20T07:06:07;23.50;99.90
3408;DHT22;1717;50.240;8.406;2023-08-20T07:08:34;23.50;99.90
3408;DHT22;1717;50.240;8.406;2023-08-20T07:11:02;23.50;99.90
3408;DHT22;1717;50.240;8.406;2023-08-20T07:13:30;23.50;99.90
3408;DHT22;1717;50.240;8.406;2023-08-20T07:15:57;23.60;99.90
3408;DHT22;1717;50.240;8.406;2023-08-20T07:18:23;23.60;99.90
3408;DHT22;1717;50.240;8.406;2023-08-20T07:20:51;23.60;99.90
3408;DHT22;1717;50.240;8.406;2023-08-20T07:23:17;23.70;99.90
3408;DHT22;1717;50.240;8.406;2023-08-20T07:25:44;23.80;99.90
3408;DHT22;1717;50.240;8.406;2023-08-20T07:28:12;23.80;99.90
3408;DHT22;1717;50.240;8.406;2023-08-20T07:30:40;23.90;99.90
3408;DHT22;1717;50.240;8.406;2023-08-20T07:33:07;24.00;99.90
3408;DHT22;1717;50.240;8.406;2023-08-20T07:35:34;24.00;99.90
3408;DHT22;1717;50.240;8.406;2023-08-20T07:38:02;24.00;99.90
3408;DHT22;1717;50.240;8.406;2023-08-20T07:40:28;24.10;99.90
3408;DHT22;1717;50.240;8.406;2023-08-20T07:42:55;24.20;99.90
3408;DHT22;1717;50.240;8.406;2023-08-20T07:45:22;24.30;99.90
3408;DHT22;1717;50.240;8.406;2023-08-20T07:47:51;24.40;99.90
3408;DHT22;1717;50.240;8.406;2023-08-20T07:50:17;24.40;99.90
3408;DHT22;1717;50.240;8.406;2023-08-20T07:52:44;24.50;99.90
3408;DHT22;1717;50.240;8.406;2023-08-20T07:55:11;24.60;99.90
3408;DHT22;1717;50.240;8.406;2023-08-20T07:57:38;24.60;99.90
3408;DHT22;1717;50.240;8.406;2023-08-20T08:00:06;24.70;99.90
3408;DHT22;1717;50.240;8.406;2023-08-20T08:02:33;24.80;99.90
3408;DHT22;1717;50.240;8.406;2023-08-20T08:05:01;24.80;99.90
3408;DHT22;1717;50.240;8.406;2023-08-20T08:07:28;24.90;99.90
3408;DHT22;1717;50.240;8.406;2023-08-20T08:09:55;24.90;99.90
3408;DHT22;1717;50.240;8.406;2023-08-20T08:12:21;25.00;99.90
3408;DHT22;1717;50.240;8.406;2023-08-20T08:14:48;25.00;99.90
3408;DHT22;1717;50.240;8.406;2023-08-20T08:17:15;25.10;99.90
3408;DHT22;1717;50.240;8.406;2023-08-20T08:19:42;25.20;99.90
3408;DHT22;1717;50.240;8.406;2023-08-20T08:22:10;25.30;99.90
3408;DHT22;1717;50.240;8.406;2023-08-20T08:24:37;25.40;99.90
3408;DHT22;1717;50.240;8.406;2023-08-20T08:27:04;25.40;99.90
3408;DHT22;1717;50.240;8.406;2023-08-20T08:29:30;25.50;99.90
3408;DHT22;1717;50.240;8.406;2023-08-20T08:31:57;25.60;99.90
3408;DHT22;1717;50.240;8.406;2023-08-20T08:34:24;25.70;99.90
3408;DHT22;1717;50.240;8.406;2023-08-20T08:36:51;25.70;99.90
3408;DHT22;1717;50.240;8.406;2023-08-20T08:39:19;25.80;99.90
3408;DHT22;1717;50.240;8.406;2023-08-20T08:41:50;25.90;99.90
3408;DHT22;1717;50.240;8.406;2023-08-20T08:44:17;25.90;99.90
3408;DHT22;1717;50.240;8.406;2023-08-20T08:46:46;25.90;99.90
3408;DHT22;1717;50.240;8.406;2023-08-20T08:49:15;26.00;99.90
3408;DHT22;1717;50.240;8.406;2023-08-20T08:51:42;26.10;99.90
3408;DHT22;1717;50.240;8.406;2023-08-20T08:54:12;26.20;99.90
3408;DHT22;1717;50.240;8.406;2023-08-20T08:56:41;26.30;99.90
3408;DHT22;1717;50.240;8.406;2023-08-20T08:59:08;26.40;99.90
3408;DHT22;1717;50.240;8.406;2023-08-20T09:01:38;26.40;99.90
3408;DHT22;1717;50.240;8.406;2023-08-20T09:04:05;26.40;99.90
3408;DHT22;1717;50.240;8.406;2023-08-20T09:06:44;26.50;99.90
3408;DHT22;1717;50.240;8.406;2023-08-20T09:09:13;26.60;99.90
3408;DHT22;1717;50.240;8.406;2023-08-20T09:11:41;26.60;99.90
3408;DHT22;1717;50.240;8.406;2023-08-20T09:14:08;26.70;99.90
3408;DHT22;1717;50.240;8.406;2023-08-20T09:16:35;26.70;99.90
3408;DHT22;1717;50.240;8.406;2023-08-20T09:19:03;26.80;99.90
3408;DHT22;1717;50.240;8.406;2023-08-20T09:21:30;26.80;99.90
3408;DHT22;1717;50.240;8.406;2023-08-20T09:23:57;26.80;99.90
3408;DHT22;1717;50.240;8.406;2023-08-20T09:26:24;26.90;99.90
3408;DHT22;1717;50.240;8.406;2023-08-20T09:28:55;26.90;99.90
3408;DHT22;1717;50.240;8.406;2023-08-20T09:31:36;27.00;99.90
3408;DHT22;1717;50.240;8.406;2023-08-20T09:34:04;27.00;99.90
3408;DHT22;1717;50.240;8.406;2023-08-20T09:36:32;27.10;99.90
3408;DHT22;1717;50.240;8.406;2023-08-20T09:38:59;27.10;99.90
3408;DHT22;1717;50.240;8.406;2023-08-20T09:41:26;27.10;99.90
3408;DHT22;1717;50.240;8.406;2023-08-20T09:43:57;27.20;99.90
3408;DHT22;1717;50.240;8.406;2023-08-20T09:46:25;27.20;99.90
3408;DHT22;1717;50.240;8.406;2023-08-20T09:48:56;27.20;99.90
3408;DHT22;1717;50.240;8.406;2023-08-20T09:51:25;27.30;99.90
3408;DHT22;1717;50.240;8.406;2023-08-20T09:53:57;27.30;99.90
3408;DHT22;1717;50.240;8.406;2023-08-20T09:56:28;27.40;99.80
3408;DHT22;1717;50.240;8.406;2023-08-20T09:58:57;27.40;99.90
3408;DHT22;1717;50.240;8.406;2023-08-20T10:01:25;27.40;99.90
3408;DHT22;1717;50.240;8.406;2023-08-20T10:03:53;27.50;99.90
3408;DHT22;1717;50.240;8.406;2023-08-20T10:06:20;27.50;99.80
3408;DHT22;1717;50.240;8.406;2023-08-20T10:08:47;27.60;99.40
3408;DHT22;1717;50.240;8.406;2023-08-20T10:11:15;27.60;99.90
3408;DHT22;1717;50.240;8.406;2023-08-20T10:13:42;27.60;99.30
3408;DHT22;1717;50.240;8.406;2023-08-20T10:16:11;27.70;99.50
3408;DHT22;1717;50.240;8.406;2023-08-20T10:18:39;27.70;99.40
3408;DHT22;1717;50.240;8.406;2023-08-20T10:21:06;27.70;99.20
3408;DHT22;1717;50.240;8.406;2023-08-20T10:23:35;27.70;99.70
3408;DHT22;1717;50.240;8.406;2023-08-20T10:26:09;27.80;99.50
3408;DHT22;1717;50.240;8.406;2023-08-20T10:28:36;27.90;99.60
3408;DHT22;1717;50.240;8.406;2023-08-20T10:31:05;27.80;99.00
3408;DHT22;1717;50.240;8.406;2023-08-20T10:33:35;27.90;99.10
3408;DHT22;1717;50.240;8.406;2023-08-20T10:36:09;27.90;99.10
3408;DHT22;1717;50.240;8.406;2023-08-20T10:38:37;27.90;99.80
3408;DHT22;1717;50.240;8.406;2023-08-20T10:41:08;28.00;99.60
3408;DHT22;1717;50.240;8.406;2023-08-20T10:43:36;28.00;98.90
3408;DHT22;1717;50.240;8.406;2023-08-20T10:46:05;28.00;98.60
3408;DHT22;1717;50.240;8.406;2023-08-20T10:48:34;28.00;98.90
3408;DHT22;1717;50.240;8.406;2023-08-20T10:51:12;28.10;98.70
3408;DHT22;1717;50.240;8.406;2023-08-20T10:53:41;28.10;98.50
3408;DHT22;1717;50.240;8.406;2023-08-20T10:56:13;28.10;98.80
3408;DHT22;1717;50.240;8.406;2023-08-20T10:58:45;28.20;99.00
3408;DHT22;1717;50.240;8.406;2023-08-20T11:01:17;28.20;98.60
3408;DHT22;1717;50.240;8.406;2023-08-20T11:03:47;28.20;99.00
3408;DHT22;1717;50.240;8.406;2023-08-20T11:06:15;28.30;98.50
3408;DHT22;1717;50.240;8.406;2023-08-20T11:08:42;28.30;98.90
3408;DHT22;1717;50.240;8.406;2023-08-20T11:11:10;28.30;99.00
3408;DHT22;1717;50.240;8.406;2023-08-20T11:13:37;28.30;98.50
3408;DHT22;1717;50.240;8.406;2023-08-20T11:16:05;28.30;98.20
3408;DHT22;1717;50.240;8.406;2023-08-20T11:18:33;28.40;98.00
3408;DHT22;1717;50.240;8.406;2023-08-20T11:21:01;28.40;98.20
3408;DHT22;1717;50.240;8.406;2023-08-20T11:23:29;28.40;98.00
3408;DHT22;1717;50.240;8.406;2023-08-20T11:25:56;28.50;98.10
3408;DHT22;1717;50.240;8.406;2023-08-20T11:28:25;28.50;98.30
3408;DHT22;1717;50.240;8.406;2023-08-20T11:30:53;28.60;98.10
3408;DHT22;1717;50.240;8.406;2023-08-20T11:33:21;28.60;98.20
3408;DHT22;1717;50.240;8.406;2023-08-20T11:35:48;28.60;97.90
3408;DHT22;1717;50.240;8.406;2023-08-20T11:38:16;28.60;97.60
3408;DHT22;1717;50.240;8.406;2023-08-20T11:40:43;28.70;97.50
3408;DHT22;1717;50.240;8.406;2023-08-20T11:43:10;28.70;97.80
3408;DHT22;1717;50.240;8.406;2023-08-20T11:45:45;28.70;97.70
3408;DHT22;1717;50.240;8.406;2023-08-20T11:48:12;28.80;97.50
3408;DHT22;1717;50.240;8.406;2023-08-20T11:50:40;28.80;97.60
3408;DHT22;1717;50.240;8.406;2023-08-20T11:53:08;28.90;97.50
3408;DHT22;1717;50.240;8.406;2023-08-20T11:55:38;28.90;97.10
3408;DHT22;1717;50.240;8.406;2023-08-20T11:58:05;28.90;97.30
3408;DHT22;1717;50.240;8.406;2023-08-20T12:00:32;29.00;96.90
3408;DHT22;1717;50.240;8.406;2023-08-20T12:02:59;29.00;96.70
3408;DHT22;1717;50.240;8.406;2023-08-20T12:05:29;29.10;96.90
3408;DHT22;1717;50.240;8.406;2023-08-20T12:07:57;29.20;95.80
3408;DHT22;1717;50.240;8.406;2023-08-20T12:10:25;29.20;92.90
3408;DHT22;1717;50.240;8.406;2023-08-20T12:12:54;29.20;91.70
3408;DHT22;1717;50.240;8.406;2023-08-20T12:15:22;29.00;91.30
3408;DHT22;1717;50.240;8.406;2023-08-20T12:17:56;29.10;90.60
3408;DHT22;1717;50.240;8.406;2023-08-20T12:20:23;29.10;90.20
3408;DHT22;1717;50.240;8.406;2023-08-20T12:22:50;29.10;92.50
3408;DHT22;1717;50.240;8.406;2023-08-20T12:25:17;29.00;92.90
3408;DHT22;1717;50.240;8.406;2023-08-20T12:27:44;29.10;93.30
3408;DHT22;1717;50.240;8.406;2023-08-20T12:30:13;29.10;92.20
3408;DHT22;1717;50.240;8.406;2023-08-20T12:32:40;29.20;93.10
3408;DHT22;1717;50.240;8.406;2023-08-20T12:35:07;29.20;91.70
3408;DHT22;1717;50.240;8.406;2023-08-20T12:37:34;29.30;91.00
3408;DHT22;1717;50.240;8.406;2023-08-20T12:40:00;29.30;90.00
3408;DHT22;1717;50.240;8.406;2023-08-20T12:42:29;29.30;90.80
3408;DHT22;1717;50.240;8.406;2023-08-20T12:44:56;29.30;91.20
3408;DHT22;1717;50.240;8.406;2023-08-20T12:47:24;29.40;90.40
3408;DHT22;1717;50.240;8.406;2023-08-20T12:49:51;29.60;90.20
3408;DHT22;1717;50.240;8.406;2023-08-20T12:52:18;29.80;90.40
3408;DHT22;1717;50.240;8.406;2023-08-20T12:54:45;29.90;90.50
3408;DHT22;1717;50.240;8.406;2023-08-20T12:57:12;30.10;90.10
3408;DHT22;1717;50.240;8.406;2023-08-20T12:59:38;30.30;89.40
3408;DHT22;1717;50.240;8.406;2023-08-20T13:02:05;30.50;87.90
3408;DHT22;1717;50.240;8.406;2023-08-20T13:04:34;30.60;83.80
3408;DHT22;1717;50.240;8.406;2023-08-20T13:07:02;30.80;83.00
3408;DHT22;1717;50.240;8.406;2023-08-20T13:09:30;31.00;82.80
3408;DHT22;1717;50.240;8.406;2023-08-20T13:11:57;31.10;83.10
3408;DHT22;1717;50.240;8.406;2023-08-20T13:14:26;31.30;83.90
3408;DHT22;1717;50.240;8.406;2023-08-20T13:16:54;31.40;83.00
3408;DHT22;1717;50.240;8.406;2023-08-20T13:19:22;31.60;84.50
3408;DHT22;1717;50.240;8.406;2023-08-20T13:21:50;31.70;82.90
3408;DHT22;1717;50.240;8.406;2023-08-20T13:24:17;31.80;82.60
3408;DHT22;1717;50.240;8.406;2023-08-20T13:26:43;31.90;81.20
3408;DHT22;1717;50.240;8.406;2023-08-20T13:29:11;32.10;79.20
3408;DHT22;1717;50.240;8.406;2023-08-20T13:31:38;32.20;80.60
3408;DHT22;1717;50.240;8.406;2023-08-20T13:34:05;32.30;79.10
3408;DHT22;1717;50.240;8.406;2023-08-20T13:36:32;32.50;77.60
3408;DHT22;1717;50.240;8.406;2023-08-20T13:39:00;32.60;76.60
3408;DHT22;1717;50.240;8.406;2023-08-20T13:41:27;32.70;76.10
3408;DHT22;1717;50.240;8.406;2023-08-20T13:43:54;32.80;77.10
3408;DHT22;1717;50.240;8.406;2023-08-20T13:46:21;32.80;78.50
3408;DHT22;1717;50.240;8.406;2023-08-20T13:48:48;32.90;77.50
3408;DHT22;1717;50.240;8.406;2023-08-20T13:51:15;33.00;75.60
3408;DHT22;1717;50.240;8.406;2023-08-20T13:53:41;33.00;74.60
3408;DHT22;1717;50.240;8.406;2023-08-20T13:56:10;33.10;74.20
3408;DHT22;1717;50.240;8.406;2023-08-20T13:58:36;33.30;72.70
3408;DHT22;1717;50.240;8.406;2023-08-20T14:01:04;33.30;72.70
3408;DHT22;1717;50.240;8.406;2023-08-20T14:03:31;33.40;73.50
3408;DHT22;1717;50.240;8.406;2023-08-20T14:05:58;33.50;73.00
3408;DHT22;1717;50.240;8.406;2023-08-20T14:08:25;33.60;72.20
3408;DHT22;1717;50.240;8.406;2023-08-20T14:10:52;33.70;71.70
3408;DHT22;1717;50.240;8.406;2023-08-20T14:13:20;33.70;71.10
3408;DHT22;1717;50.240;8.406;2023-08-20T14:15:47;33.90;70.00
3408;DHT22;1717;50.240;8.406;2023-08-20T14:18:14;34.00;70.00
3408;DHT22;1717;50.240;8.406;2023-08-20T14:20:41;34.10;70.70
3408;DHT22;1717;50.240;8.406;2023-08-20T14:23:08;34.10;70.80
3408;DHT22;1717;50.240;8.406;2023-08-20T14:25:35;34.20;69.30
3408;DHT22;1717;50.240;8.406;2023-08-20T14:28:02;34.30;68.30
3408;DHT22;1717;50.240;8.406;2023-08-20T14:30:30;34.30;67.80
3408;DHT22;1717;50.240;8.406;2023-08-20T14:32:57;34.40;68.10
3408;DHT22;1717;50.240;8.406;2023-08-20T14:35:24;34.50;67.90
3408;DHT22;1717;50.240;8.406;2023-08-20T14:37:52;34.50;67.20
3408;DHT22;1717;50.240;8.406;2023-08-20T14:40:19;34.60;65.50
3408;DHT22;1717;50.240;8.406;2023-08-20T14:42:46;34.60;66.60
3408;DHT22;1717;50.240;8.406;2023-08-20T14:45:13;34.60;66.90
3408;DHT22;1717;50.240;8.406;2023-08-20T14:47:41;34.70;67.00
3408;DHT22;1717;50.240;8.406;2023-08-20T14:50:08;34.70;66.60
3408;DHT22;1717;50.240;8.406;2023-08-20T14:52:35;34.70;64.80
3408;DHT22;1717;50.240;8.406;2023-08-20T14:55:03;34.70;64.90
3408;DHT22;1717;50.240;8.406;2023-08-20T14:57:33;34.70;65.60
3408;DHT22;1717;50.240;8.406;2023-08-20T15:00:00;34.80;65.60
3408;DHT22;1717;50.240;8.406;2023-08-20T15:02:29;34.80;64.90
3408;DHT22;1717;50.240;8.406;2023-08-20T15:04:57;34.70;64.90
3408;DHT22;1717;50.240;8.406;2023-08-20T15:07:24;34.70;64.90
3408;DHT22;1717;50.240;8.406;2023-08-20T15:09:51;34.70;64.90
3408;DHT22;1717;50.240;8.406;2023-08-20T15:12:18;34.70;65.20
3408;DHT22;1717;50.240;8.406;2023-08-20T15:14:45;34.70;64.40
3408;DHT22;1717;50.240;8.406;2023-08-20T15:17:12;34.70;64.30
3408;DHT22;1717;50.240;8.406;2023-08-20T15:19:39;34.70;64.10
3408;DHT22;1717;50.240;8.406;2023-08-20T15:22:07;34.80;64.10
3408;DHT22;1717;50.240;8.406;2023-08-20T15:24:34;34.70;64.10
3408;DHT22;1717;50.240;8.406;2023-08-20T15:27:01;34.80;64.40
3408;DHT22;1717;50.240;8.406;2023-08-20T15:29:29;34.80;64.80
3408;DHT22;1717;50.240;8.406;2023-08-20T15:31:56;34.80;64.30
3408;DHT22;1717;50.240;8.406;2023-08-20T15:34:23;34.80;63.90
3408;DHT22;1717;50.240;8.406;2023-08-20T15:36:50;34.70;63.50
3408;DHT22;1717;50.240;8.406;2023-08-20T15:39:18;34.70;63.00
3408;DHT22;1717;50.240;8.406;2023-08-20T15:41:45;34.70;63.20
3408;DHT22;1717;50.240;8.406;2023-08-20T15:44:12;34.70;63.50
3408;DHT22;1717;50.240;8.406;2023-08-20T15:46:39;34.80;63.70
3408;DHT22;1717;50.240;8.406;2023-08-20T15:49:06;34.80;63.30
3408;DHT22;1717;50.240;8.406;2023-08-20T15:51:33;34.70;63.70
3408;DHT22;1717;50.240;8.406;2023-08-20T15:54:01;34.70;63.90
3408;DHT22;1717;50.240;8.406;2023-08-20T15:56:30;34.70;63.80
3408;DHT22;1717;50.240;8.406;2023-08-20T15:58:57;34.70;64.10
3408;DHT22;1717;50.240;8.406;2023-08-20T16:01:23;34.70;64.00
3408;DHT22;1717;50.240;8.406;2023-08-20T16:03:53;34.70;63.00